Weather at Coonamble Airport

Public forecast

Using degrees Celsius for public forecast. Weather courtesy of forecast.io.

Current aviation weather report (METAR) for Coonamble Airport

Retrieved 2021/04/12 14:00 UTC (51 minutes ago):

YCNM 121400Z AUTO 00000KT //// // ////// 08/02 Q1021

Closest aviation forecast (TAF) to Coonamble Airport

Closest forecast is Dubbo City Regional Airport, 74.7 nm (138.4 km) S. Retrieved 2021/04/12 12:36 UTC (2 hours ago):

TAF YSDU 121118Z 1212/1306 17006KT CAVOK FM121800 09008KT CAVOK